Time;durP1;ratioP1;P1;durP2;ratioP2;P2;SDS_P1;SDS_P2;PMS_P1;PMS_P2;Temp;Humidity;BMP_temperature;BMP_pressure;BME280_temperature;BME280_humidity;BME280_pressure;Samples;Min_cycle;Max_cycle;Signal;HPM_P1;HPM_P2
2022/10/17 00:00:21;;;;;;;28.97;6.00;;;10.90;99.90;;;;;;5083007;28;20188;-60
2022/10/17 00:02:47;;;;;;;18.10;4.30;;;10.80;99.90;;;;;;5089713;28;20396;-60
2022/10/17 00:05:13;;;;;;;8.60;4.00;;;10.80;99.90;;;;;;5072633;28;20579;-60
2022/10/17 00:07:38;;;;;;;6.30;3.77;;;10.80;99.90;;;;;;5084607;28;20288;-61
2022/10/17 00:10:07;;;;;;;11.30;3.63;;;10.70;99.90;;;;;;5083777;28;20257;-61
2022/10/17 00:12:33;;;;;;;30.63;4.17;;;10.70;99.90;;;;;;5079742;28;20217;-60
2022/10/17 00:14:59;;;;;;;8.50;4.00;;;10.70;99.90;;;;;;5079714;28;20971;-60
2022/10/17 00:17:25;;;;;;;31.67;4.40;;;10.70;99.90;;;;;;5088897;28;20412;-60
2022/10/17 00:19:50;;;;;;;27.13;4.30;;;10.70;99.90;;;;;;5084108;28;20539;-61
2022/10/17 00:22:16;;;;;;;27.70;3.90;;;10.70;99.90;;;;;;5086053;28;20182;-59
2022/10/17 00:24:41;;;;;;;25.90;3.67;;;10.70;99.90;;;;;;5076730;28;20185;-60
2022/10/17 00:27:07;;;;;;;15.60;3.47;;;10.70;99.90;;;;;;5077833;28;20544;-60
2022/10/17 00:29:33;;;;;;;16.60;4.33;;;10.70;99.90;;;;;;5078584;28;20203;-60
2022/10/17 00:31:58;;;;;;;14.77;3.37;;;10.70;99.90;;;;;;5085233;28;20202;-60
2022/10/17 00:34:24;;;;;;;6.87;3.03;;;10.60;99.90;;;;;;5078181;28;20202;-60
2022/10/17 00:36:50;;;;;;;10.00;2.63;;;10.60;99.90;;;;;;5081569;28;20180;-60
2022/10/17 00:39:16;;;;;;;13.37;3.60;;;10.60;99.90;;;;;;5085733;28;20538;-60
2022/10/17 00:41:41;;;;;;;10.10;3.43;;;10.60;99.90;;;;;;5085810;28;20178;-60
2022/10/17 00:44:29;;;;;;;14.77;3.17;;;10.60;99.90;;;;;;5083459;28;20182;-59
2022/10/17 00:46:56;;;;;;;8.07;3.30;;;10.70;99.90;;;;;;5078470;28;20219;-59
2022/10/17 00:49:23;;;;;;;10.77;3.00;;;10.70;99.90;;;;;;5081444;28;20451;-60
2022/10/17 00:51:57;;;;;;;11.60;2.80;;;10.70;99.90;;;;;;5082791;28;21028;-60
2022/10/17 00:54:29;;;;;;;13.83;2.90;;;10.70;99.90;;;;;;5083553;28;20426;-61
2022/10/17 00:56:55;;;;;;;6.10;3.17;;;10.70;99.90;;;;;;5079706;28;20516;-60
2022/10/17 00:59:22;;;;;;;3.30;3.00;;;10.60;99.90;;;;;;5073650;28;21778;-60
2022/10/17 01:02:09;;;;;;;4.77;2.80;;;10.60;99.90;;;;;;5085483;28;20174;-59
2022/10/17 01:04:36;;;;;;;4.10;2.80;;;10.60;99.90;;;;;;5080847;28;20496;-60
2022/10/17 01:07:02;;;;;;;3.90;2.60;;;10.60;99.90;;;;;;5078270;28;20495;-59
2022/10/17 01:09:28;;;;;;;7.27;3.07;;;10.50;99.90;;;;;;5080587;28;20883;-60
2022/10/17 01:12:14;;;;;;;18.67;3.00;;;10.50;99.90;;;;;;5078686;28;20190;-60
2022/10/17 01:15:08;;;;;;;7.73;3.10;;;10.50;99.90;;;;;;5076334;28;20170;-60
2022/10/17 01:17:50;;;;;;;18.13;3.63;;;10.50;99.90;;;;;;5086756;28;20475;-59
2022/10/17 01:20:36;;;;;;;16.30;2.90;;;10.50;99.90;;;;;;5078909;28;20435;-60
2022/10/17 01:23:10;;;;;;;6.73;3.17;;;10.50;99.90;;;;;;5083121;28;20999;-60
2022/10/17 01:25:44;;;;;;;35.17;3.93;;;10.40;99.90;;;;;;5077129;28;20790;-60
2022/10/17 01:28:13;;;;;;;26.90;3.27;;;10.40;99.90;;;;;;5083817;28;20450;-60
2022/10/17 01:30:57;;;;;;;34.60;3.90;;;10.40;99.90;;;;;;5081240;28;20444;-61
2022/10/17 01:33:46;;;;;;;32.07;5.20;;;10.40;99.90;;;;;;5079175;28;21110;-62
2022/10/17 01:36:34;;;;;;;40.40;5.27;;;10.40;99.90;;;;;;5076795;28;20441;-60
2022/10/17 01:39:09;;;;;;;16.70;3.97;;;10.40;99.90;;;;;;5084451;28;20467;-60
2022/10/17 01:41:52;;;;;;;11.90;3.27;;;10.30;99.90;;;;;;5078972;28;20436;-60
2022/10/17 01:44:21;;;;;;;6.50;2.87;;;10.30;99.90;;;;;;5071429;28;20428;-59
2022/10/17 01:46:50;;;;;;;17.97;3.20;;;10.30;99.90;;;;;;5084082;28;20423;-60
2022/10/17 01:49:21;;;;;;;15.63;2.83;;;10.30;99.90;;;;;;5083982;28;20432;-60
2022/10/17 01:51:59;;;;;;;8.07;2.97;;;10.30;99.90;;;;;;5073557;28;20567;-59
2022/10/17 01:54:29;;;;;;;11.33;2.70;;;10.30;99.90;;;;;;5076597;28;20458;-60
2022/10/17 01:56:59;;;;;;;5.20;3.37;;;10.30;99.90;;;;;;5074547;28;20429;-60
2022/10/17 01:59:46;;;;;;;3.47;2.63;;;10.30;99.90;;;;;;5089088;28;20451;-61
2022/10/17 02:02:13;;;;;;;9.07;2.80;;;10.30;99.90;;;;;;5082196;28;20441;-59
2022/10/17 02:04:40;;;;;;;6.83;2.50;;;10.30;99.90;;;;;;5089131;28;20412;-60
2022/10/17 02:07:11;;;;;;;8.87;2.30;;;10.20;99.90;;;;;;5081461;28;20428;-60
2022/10/17 02:09:37;;;;;;;5.03;2.37;;;10.20;99.90;;;;;;5081353;28;20806;-60
2022/10/17 02:12:29;;;;;;;9.60;2.57;;;10.20;99.90;;;;;;5077233;28;20872;-59
2022/10/17 02:15:13;;;;;;;4.00;2.30;;;10.20;99.90;;;;;;5081631;28;20430;-60
2022/10/17 02:18:04;;;;;;;4.97;2.33;;;10.20;99.90;;;;;;5076015;28;20535;-60
2022/10/17 02:20:48;;;;;;;9.80;2.70;;;10.20;99.90;;;;;;5078893;28;20437;-60
2022/10/17 02:23:32;;;;;;;17.77;2.37;;;10.20;99.90;;;;;;5073158;28;20545;-61
2022/10/17 02:26:10;;;;;;;2.27;2.07;;;10.20;99.90;;;;;;5075225;28;20789;-60
2022/10/17 02:29:13;;;;;;;10.27;2.47;;;10.20;99.90;;;;;;5085654;28;20459;-59
2022/10/17 02:31:44;;;;;;;5.03;2.20;;;10.20;99.90;;;;;;5085442;28;20490;-59
2022/10/17 02:34:18;;;;;;;6.93;2.20;;;10.20;99.90;;;;;;5085299;28;20428;-60
2022/10/17 02:36:51;;;;;;;4.27;2.30;;;10.20;99.90;;;;;;5081499;28;20424;-61
2022/10/17 02:39:21;;;;;;;43.30;4.00;;;10.20;99.90;;;;;;5088664;28;21044;-60
2022/10/17 02:41:49;;;;;;;16.90;3.10;;;10.20;99.90;;;;;;5075927;28;20440;-61
2022/10/17 02:44:16;;;;;;;25.50;3.10;;;10.10;99.90;;;;;;5087997;28;20946;-60
2022/10/17 02:46:47;;;;;;;3.97;2.57;;;10.10;99.90;;;;;;5085355;28;20432;-59
2022/10/17 02:49:24;;;;;;;7.70;2.33;;;10.10;99.90;;;;;;5076227;28;20551;-60
2022/10/17 02:52:37;;;;;;;23.07;2.60;;;10.10;99.90;;;;;;5092379;28;20475;-59
2022/10/17 02:55:09;;;;;;;9.20;2.50;;;10.10;99.90;;;;;;5074327;28;20442;-62
2022/10/17 02:57:49;;;;;;;3.37;2.40;;;10.00;99.90;;;;;;5081090;28;20448;-60
2022/10/17 03:00:16;;;;;;;9.60;2.63;;;10.00;99.90;;;;;;5087994;28;20439;-59
2022/10/17 03:02:50;;;;;;;20.50;2.63;;;10.00;99.90;;;;;;5080683;28;20505;-60
2022/10/17 03:05:22;;;;;;;11.97;2.30;;;10.00;99.90;;;;;;5081210;28;20435;-60
2022/10/17 03:07:47;;;;;;;2.27;2.07;;;9.90;99.90;;;;;;5083895;28;21089;-60
2022/10/17 03:10:13;;;;;;;4.57;1.90;;;9.90;99.90;;;;;;5088987;28;20518;-59
2022/10/17 03:12:39;;;;;;;9.73;2.33;;;9.80;99.90;;;;;;5074244;28;20213;-59
2022/10/17 03:15:05;;;;;;;2.17;1.90;;;9.80;99.90;;;;;;5074019;28;20201;-59
2022/10/17 03:17:31;;;;;;;4.30;1.70;;;9.70;99.90;;;;;;5087294;28;20201;-60
2022/10/17 03:19:57;;;;;;;10.00;2.33;;;9.70;99.90;;;;;;5085007;28;20467;-59
2022/10/17 03:22:23;;;;;;;12.63;2.60;;;9.70;99.90;;;;;;5076757;28;20413;-59
2022/10/17 03:24:48;;;;;;;11.97;2.20;;;9.70;99.90;;;;;;5078952;28;20189;-60
2022/10/17 03:27:14;;;;;;;16.20;2.53;;;9.70;99.90;;;;;;5086505;28;20636;-61
2022/10/17 03:29:39;;;;;;;14.50;2.60;;;9.60;99.90;;;;;;5088298;28;20189;-60
2022/10/17 03:32:05;;;;;;;7.90;2.63;;;9.60;99.90;;;;;;5076612;28;20205;-59
2022/10/17 03:34:31;;;;;;;21.83;2.90;;;9.60;99.90;;;;;;5080424;28;20616;-60
2022/10/17 03:36:56;;;;;;;9.03;1.97;;;9.60;99.90;;;;;;5087145;28;20227;-60
2022/10/17 03:39:22;;;;;;;6.73;2.03;;;9.50;99.90;;;;;;5083578;28;20202;-60
2022/10/17 03:41:47;;;;;;;9.23;2.00;;;9.40;99.90;;;;;;5069791;28;20245;-59
2022/10/17 03:44:13;;;;;;;14.13;2.60;;;9.40;99.90;;;;;;5086353;28;20211;-60
2022/10/17 03:46:39;;;;;;;17.03;2.50;;;9.40;99.90;;;;;;5089792;28;20174;-60
2022/10/17 03:49:04;;;;;;;9.93;2.40;;;9.30;99.90;;;;;;5083514;28;20201;-60
2022/10/17 03:51:32;;;;;;;8.90;2.43;;;9.30;99.90;;;;;;5081378;28;20201;-60
2022/10/17 03:53:57;;;;;;;2.10;2.00;;;9.20;99.90;;;;;;5069764;28;20190;-60
2022/10/17 03:56:24;;;;;;;7.10;2.50;;;9.20;99.90;;;;;;5087198;28;20573;-61
2022/10/17 03:58:50;;;;;;;5.10;2.27;;;9.20;99.90;;;;;;5090581;28;20248;-62
2022/10/17 04:01:18;;;;;;;5.27;2.80;;;9.20;99.90;;;;;;5091050;28;20432;-61
2022/10/17 04:03:47;;;;;;;7.93;3.13;;;9.20;99.90;;;;;;5080682;28;20776;-62
2022/10/17 04:06:13;;;;;;;7.43;2.60;;;9.20;99.90;;;;;;5072345;28;20440;-62
2022/10/17 04:08:38;;;;;;;2.93;2.17;;;9.10;99.90;;;;;;5076280;28;20460;-62
2022/10/17 04:11:06;;;;;;;4.33;2.30;;;9.10;99.90;;;;;;5075304;28;20197;-60
2022/10/17 04:13:33;;;;;;;7.13;2.50;;;9.10;99.90;;;;;;5072046;28;20210;-60
2022/10/17 04:16:03;;;;;;;6.10;2.67;;;9.10;99.90;;;;;;5069534;28;20932;-61
2022/10/17 04:18:29;;;;;;;12.33;2.60;;;9.10;99.90;;;;;;5073620;28;20448;-62
2022/10/17 04:20:55;;;;;;;49.00;5.03;;;9.10;99.90;;;;;;5070786;28;20497;-62
2022/10/17 04:23:20;;;;;;;24.30;3.43;;;9.10;99.90;;;;;;5074853;28;20443;-62
2022/10/17 04:25:46;;;;;;;69.43;6.33;;;9.00;99.90;;;;;;5073888;28;20206;-58
2022/10/17 04:28:12;;;;;;;35.37;3.73;;;9.00;99.90;;;;;;5071982;28;20220;-63
2022/10/17 04:30:39;;;;;;;9.03;2.87;;;9.00;99.90;;;;;;5074575;28;20178;-62
2022/10/17 04:33:04;;;;;;;7.30;2.93;;;8.90;99.90;;;;;;5069324;28;20578;-62
2022/10/17 04:35:30;;;;;;;33.67;4.23;;;8.90;99.90;;;;;;5067960;28;20431;-63
2022/10/17 04:37:55;;;;;;;23.80;3.30;;;8.90;99.90;;;;;;5069355;28;20199;-62
2022/10/17 04:40:21;;;;;;;6.67;2.90;;;8.90;99.90;;;;;;5073489;28;20190;-62
2022/10/17 04:42:47;;;;;;;23.47;3.40;;;8.90;99.90;;;;;;5074415;28;20174;-61
2022/10/17 04:45:13;;;;;;;12.43;4.23;;;8.90;99.90;;;;;;5069947;28;20437;-62
2022/10/17 04:47:38;;;;;;;19.33;3.67;;;8.90;99.90;;;;;;5074662;28;20202;-61
2022/10/17 04:50:04;;;;;;;27.73;3.40;;;8.90;99.90;;;;;;5077534;28;20264;-61
2022/10/17 04:52:30;;;;;;;13.33;2.70;;;8.90;99.90;;;;;;5082346;28;20683;-60
2022/10/17 04:54:56;;;;;;;18.87;2.57;;;8.90;99.90;;;;;;5076639;28;20427;-62
2022/10/17 04:57:23;;;;;;;4.90;2.60;;;8.80;99.90;;;;;;5070666;28;21027;-61
2022/10/17 04:59:49;;;;;;;10.33;2.40;;;8.80;99.90;;;;;;5083764;28;20484;-61
2022/10/17 05:02:15;;;;;;;7.17;2.47;;;8.80;99.90;;;;;;5086384;28;20419;-61
2022/10/17 05:04:40;;;;;;;8.13;3.17;;;8.80;99.90;;;;;;5086448;28;20190;-61
2022/10/17 05:07:06;;;;;;;7.33;3.53;;;8.80;99.90;;;;;;5074826;28;20185;-61
2022/10/17 05:09:31;;;;;;;9.37;3.03;;;8.80;99.90;;;;;;5074009;28;20209;-61
2022/10/17 05:11:57;;;;;;;7.57;2.23;;;8.80;99.90;;;;;;5073938;28;20202;-61
2022/10/17 05:14:23;;;;;;;14.17;2.70;;;8.70;99.90;;;;;;5083062;28;20230;-61
2022/10/17 05:16:48;;;;;;;2.50;2.27;;;8.70;99.90;;;;;;5078697;28;20273;-62
2022/10/17 05:19:14;;;;;;;2.10;2.00;;;8.70;99.90;;;;;;5082080;28;20208;-62
2022/10/17 05:21:40;;;;;;;8.40;2.57;;;8.70;99.90;;;;;;5077477;28;20173;-62
2022/10/17 05:24:07;;;;;;;4.83;2.50;;;8.70;99.90;;;;;;5071209;28;20174;-61
2022/10/17 05:26:33;;;;;;;7.70;2.50;;;8.70;99.90;;;;;;5069989;28;20190;-61
2022/10/17 05:29:04;;;;;;;33.47;3.10;;;8.70;99.90;;;;;;5083754;28;20439;-61
2022/10/17 05:31:30;;;;;;;6.73;2.80;;;8.70;99.90;;;;;;5086178;28;20456;-62
2022/10/17 05:34:00;;;;;;;10.13;3.33;;;8.70;99.90;;;;;;5083384;28;20420;-62
2022/10/17 05:36:25;;;;;;;12.70;3.10;;;8.70;99.90;;;;;;5077074;28;20435;-61
2022/10/17 05:38:51;;;;;;;7.53;3.20;;;8.80;99.90;;;;;;5081784;28;20836;-62
2022/10/17 05:41:18;;;;;;;13.70;4.13;;;8.70;99.90;;;;;;5089245;28;20185;-61
2022/10/17 05:43:44;;;;;;;27.77;3.60;;;8.70;99.90;;;;;;5074799;28;20197;-62
2022/10/17 05:46:10;;;;;;;27.20;3.83;;;8.80;99.90;;;;;;5079520;28;20431;-61
2022/10/17 05:48:35;;;;;;;18.50;3.40;;;8.70;99.90;;;;;;5083802;28;20202;-61
2022/10/17 05:51:07;;;;;;;45.57;4.43;;;8.70;99.90;;;;;;5069796;28;20253;-62
2022/10/17 05:53:36;;;;;;;52.30;5.40;;;8.70;99.90;;;;;;5079903;28;20185;-62
2022/10/17 05:56:04;;;;;;;54.43;5.60;;;8.70;99.90;;;;;;5082715;28;20467;-62
2022/10/17 05:58:31;;;;;;;40.10;5.40;;;8.70;99.90;;;;;;5077233;28;20453;-62
2022/10/17 06:01:02;;;;;;;28.73;5.07;;;8.60;99.90;;;;;;5085761;28;20443;-62
2022/10/17 06:03:28;;;;;;;20.07;4.87;;;8.60;99.90;;;;;;5080085;28;20428;-63
2022/10/17 06:05:54;;;;;;;38.50;5.37;;;8.60;99.90;;;;;;5081847;28;20488;-62
2022/10/17 06:08:21;;;;;;;33.67;5.20;;;8.50;99.90;;;;;;5075300;28;20455;-62
2022/10/17 06:10:49;;;;;;;13.17;4.40;;;8.50;99.90;;;;;;5083824;28;20201;-61
2022/10/17 06:13:16;;;;;;;21.90;5.43;;;8.50;99.90;;;;;;5085922;28;20427;-62
2022/10/17 06:15:42;;;;;;;34.20;5.10;;;8.50;99.90;;;;;;5076212;28;20448;-62
2022/10/17 06:18:07;;;;;;;20.23;8.80;;;8.50;99.90;;;;;;5075145;28;20444;-61
2022/10/17 06:20:33;;;;;;;14.40;6.23;;;8.40;99.90;;;;;;5085719;28;20258;-61
2022/10/17 06:22:59;;;;;;;6.70;4.27;;;8.40;99.90;;;;;;5085482;28;20178;-62
2022/10/17 06:25:24;;;;;;;16.03;4.13;;;8.40;99.90;;;;;;5076339;28;20692;-61
2022/10/17 06:27:50;;;;;;;9.30;4.03;;;8.40;99.90;;;;;;5077389;28;20193;-62
2022/10/17 06:30:15;;;;;;;5.90;2.83;;;8.40;99.90;;;;;;5085791;28;20181;-62
2022/10/17 06:32:41;;;;;;;11.20;3.80;;;8.40;99.90;;;;;;5072808;28;20235;-62
2022/10/17 06:35:07;;;;;;;28.00;4.27;;;8.40;99.90;;;;;;5075633;28;20198;-62
2022/10/17 06:37:34;;;;;;;3.10;2.80;;;8.50;99.90;;;;;;5073935;28;20206;-62
2022/10/17 06:39:59;;;;;;;5.57;3.00;;;8.50;99.90;;;;;;5080102;28;20417;-62
2022/10/17 06:42:25;;;;;;;4.47;3.30;;;8.50;99.90;;;;;;5087226;28;20426;-62
2022/10/17 06:44:50;;;;;;;15.43;3.37;;;8.60;99.90;;;;;;5085895;28;20252;-62
2022/10/17 06:47:16;;;;;;;22.07;4.17;;;8.60;99.90;;;;;;5084427;28;20220;-63
2022/10/17 06:49:42;;;;;;;18.30;4.70;;;8.60;99.90;;;;;;5087445;28;20173;-62
2022/10/17 06:52:08;;;;;;;8.37;5.80;;;8.60;99.90;;;;;;5081134;28;20712;-62
2022/10/17 06:54:34;;;;;;;5.70;3.77;;;8.60;99.90;;;;;;5081707;28;20200;-63
2022/10/17 06:57:00;;;;;;;12.40;3.40;;;8.70;99.90;;;;;;5077047;28;20437;-61
2022/10/17 06:59:25;;;;;;;9.23;3.90;;;8.70;99.90;;;;;;5076386;28;20209;-61
2022/10/17 07:01:51;;;;;;;13.00;4.83;;;8.80;99.90;;;;;;5075420;28;20174;-61
2022/10/17 07:04:16;;;;;;;20.40;4.90;;;8.80;99.90;;;;;;5082207;28;20182;-62
2022/10/17 07:06:42;;;;;;;21.27;4.63;;;8.90;99.90;;;;;;5065602;28;20181;-62
2022/10/17 07:09:08;;;;;;;19.67;4.20;;;8.90;99.90;;;;;;5088034;28;20583;-63
2022/10/17 07:11:34;;;;;;;21.57;5.10;;;8.90;99.90;;;;;;5077427;28;20199;-61
2022/10/17 07:14:00;;;;;;;21.63;7.37;;;9.00;99.90;;;;;;5090713;28;20639;-61
2022/10/17 07:16:26;;;;;;;45.03;12.63;;;9.00;99.90;;;;;;5089629;28;20177;-62
2022/10/17 07:18:53;;;;;;;32.57;10.13;;;9.10;99.90;;;;;;5085655;28;20483;-62
2022/10/17 07:21:19;;;;;;;23.77;8.20;;;9.10;99.90;;;;;;5071393;28;20803;-62
2022/10/17 07:23:45;;;;;;;21.80;8.13;;;9.10;99.90;;;;;;5070310;28;20401;-62
2022/10/17 07:26:13;;;;;;;12.67;6.43;;;9.10;99.90;;;;;;5082737;28;20684;-61
2022/10/17 07:28:40;;;;;;;15.23;7.67;;;9.20;99.90;;;;;;5071711;28;20468;-62
2022/10/17 07:31:09;;;;;;;20.60;9.40;;;9.30;99.90;;;;;;5072444;28;20445;-62
2022/10/17 07:33:35;;;;;;;16.90;7.40;;;9.40;99.90;;;;;;5089427;28;21078;-63
2022/10/17 07:36:02;;;;;;;14.43;7.33;;;9.50;99.90;;;;;;5071985;28;20515;-62
2022/10/17 07:38:28;;;;;;;19.40;8.60;;;9.50;99.90;;;;;;5069096;28;20589;-62
2022/10/17 07:40:58;;;;;;;19.50;8.80;;;9.60;99.90;;;;;;5080237;28;20428;-62
2022/10/17 07:43:25;;;;;;;15.80;8.07;;;9.70;99.90;;;;;;5080399;28;20185;-59
2022/10/17 07:45:52;;;;;;;15.37;8.67;;;9.70;99.90;;;;;;5082120;28;20516;-59
2022/10/17 07:48:18;;;;;;;17.03;10.10;;;9.80;99.90;;;;;;5077106;28;20453;-61
2022/10/17 07:50:44;;;;;;;24.10;10.17;;;9.80;99.90;;;;;;5072751;28;20435;-61
2022/10/17 07:53:09;;;;;;;23.50;10.67;;;9.90;99.90;;;;;;5075042;28;20437;-61
2022/10/17 07:55:39;;;;;;;23.70;11.30;;;10.00;99.90;;;;;;5075768;28;20257;-61
2022/10/17 07:58:05;;;;;;;28.10;12.30;;;10.10;99.90;;;;;;5083306;28;20212;-60
2022/10/17 08:00:31;;;;;;;21.87;12.27;;;10.10;99.90;;;;;;5073037;28;20467;-60
2022/10/17 08:02:56;;;;;;;26.03;12.00;;;10.20;99.90;;;;;;5073993;28;20424;-58
2022/10/17 08:05:22;;;;;;;20.27;10.07;;;10.30;99.90;;;;;;5082153;28;20189;-60
2022/10/17 08:07:48;;;;;;;22.97;9.07;;;10.40;99.90;;;;;;5076799;28;20200;-60
2022/10/17 08:10:15;;;;;;;22.37;8.37;;;10.50;99.90;;;;;;5078426;28;20209;-61
2022/10/17 08:12:40;;;;;;;16.10;7.23;;;10.60;99.90;;;;;;5076636;28;20209;-61
2022/10/17 08:15:07;;;;;;;10.33;6.07;;;10.70;99.90;;;;;;5076289;28;20435;-63
2022/10/17 08:17:34;;;;;;;7.73;5.17;;;10.80;99.90;;;;;;5075501;28;20235;-60
2022/10/17 08:19:59;;;;;;;12.17;5.23;;;10.90;99.90;;;;;;5073116;28;20432;-60
2022/10/17 08:22:25;;;;;;;8.23;4.47;;;11.00;99.90;;;;;;5075394;28;20440;-61
2022/10/17 08:24:51;;;;;;;6.90;4.30;;;11.10;99.90;;;;;;5082216;28;20614;-63
2022/10/17 08:27:22;;;;;;;7.00;4.33;;;11.20;99.90;;;;;;5086528;28;20193;-60
2022/10/17 08:29:51;;;;;;;6.13;3.60;;;11.30;99.90;;;;;;5067381;28;20182;-61
2022/10/17 08:32:18;;;;;;;3.67;3.07;;;11.40;99.90;;;;;;5088516;28;20559;-61
2022/10/17 08:34:44;;;;;;;5.03;3.20;;;11.50;99.90;;;;;;5084407;28;20431;-62
2022/10/17 08:37:09;;;;;;;9.80;4.80;;;11.50;99.90;;;;;;5080358;28;20438;-62
2022/10/17 08:39:35;;;;;;;11.37;4.50;;;11.70;99.90;;;;;;5078948;28;20676;-62
2022/10/17 08:42:25;;;;;;;9.13;5.00;;;11.80;99.90;;;;;;5084424;28;20189;-62
2022/10/17 08:45:00;;;;;;;12.83;5.43;;;11.90;99.90;;;;;;5079710;28;20174;-61
2022/10/17 08:47:34;;;;;;;6.00;4.30;;;12.00;99.90;;;;;;5086248;28;20974;-62
2022/10/17 08:50:03;;;;;;;8.57;4.23;;;12.10;99.90;;;;;;5078929;28;20852;-61
2022/10/17 08:52:37;;;;;;;3.80;3.43;;;12.20;99.90;;;;;;5074361;28;20456;-62
2022/10/17 08:55:08;;;;;;;4.90;3.40;;;12.40;99.90;;;;;;5073343;28;20436;-60
2022/10/17 08:57:33;;;;;;;4.03;3.33;;;12.50;99.90;;;;;;5073534;28;20970;-61
2022/10/17 08:59:59;;;;;;;10.43;3.13;;;12.60;99.90;;;;;;5075264;28;20443;-61
2022/10/17 09:02:56;;;;;;;5.00;3.47;;;12.80;99.90;;;;;;5076841;28;20291;-62
2022/10/17 09:06:03;;;;;;;4.07;3.20;;;12.90;99.90;;;;;;5075807;28;20234;-59
2022/10/17 09:08:32;;;;;;;4.83;3.30;;;13.20;99.90;;;;;;5073891;28;20486;-61
2022/10/17 09:11:19;;;;;;;7.10;3.83;;;13.40;99.90;;;;;;5091165;28;20466;-61
2022/10/17 09:13:57;;;;;;;7.17;3.60;;;13.50;99.90;;;;;;5071638;28;20440;-61
2022/10/17 09:16:37;;;;;;;4.20;3.60;;;13.70;99.90;;;;;;5069763;28;20424;-60
2022/10/17 09:19:20;;;;;;;6.00;3.90;;;13.80;99.90;;;;;;5075749;28;20471;-60
2022/10/17 09:21:54;;;;;;;7.10;3.90;;;14.00;99.90;;;;;;5074309;28;20624;-60
2022/10/17 09:24:37;;;;;;;6.23;3.40;;;14.20;99.90;;;;;;5079379;28;20447;-60
2022/10/17 09:27:04;;;;;;;6.67;3.43;;;14.30;99.90;;;;;;5072602;28;20930;-61
2022/10/17 09:29:30;;;;;;;3.93;3.30;;;14.50;99.90;;;;;;5081409;28;20464;-62
2022/10/17 09:32:14;;;;;;;4.97;3.70;;;14.70;99.90;;;;;;5066045;28;20974;-61
2022/10/17 09:34:40;;;;;;;11.00;3.00;;;14.90;99.90;;;;;;5074742;28;20179;-63
2022/10/17 09:37:12;;;;;;;3.27;2.97;;;15.10;99.90;;;;;;5076517;28;20938;-60
2022/10/17 09:39:38;;;;;;;5.30;3.10;;;15.20;99.90;;;;;;5075186;28;21030;-61
2022/10/17 09:42:04;;;;;;;5.00;3.50;;;15.30;99.90;;;;;;5076280;28;20516;-60
2022/10/17 09:44:31;;;;;;;8.10;3.30;;;15.40;99.90;;;;;;5076987;28;20374;-61
2022/10/17 09:47:23;;;;;;;6.50;3.80;;;15.60;99.90;;;;;;5075948;28;20429;-60
2022/10/17 09:49:49;;;;;;;3.77;3.43;;;15.70;99.90;;;;;;5073981;28;20447;-61
2022/10/17 09:52:25;;;;;;;5.70;4.33;;;15.90;99.90;;;;;;5075256;28;20476;-61
2022/10/17 09:54:54;;;;;;;8.97;5.47;;;16.10;99.90;;;;;;5081507;28;20774;-61
2022/10/17 09:57:21;;;;;;;13.47;7.10;;;16.30;99.90;;;;;;5080420;28;20430;-60
2022/10/17 09:59:54;;;;;;;12.20;7.63;;;16.50;99.90;;;;;;5076447;28;21008;-60
2022/10/17 10:02:22;;;;;;;11.50;7.33;;;16.70;99.90;;;;;;5081183;28;20439;-61
2022/10/17 10:05:05;;;;;;;17.13;7.57;;;16.90;99.90;;;;;;5079391;28;20432;-60
2022/10/17 10:07:36;;;;;;;11.43;7.10;;;17.00;99.90;;;;;;5072421;28;20576;-61
2022/10/17 10:10:06;;;;;;;9.50;6.10;;;17.20;99.90;;;;;;5077026;28;20455;-62
2022/10/17 10:12:35;;;;;;;14.43;6.20;;;17.30;99.90;;;;;;5085598;28;20471;-61
2022/10/17 10:15:01;;;;;;;8.30;5.97;;;17.50;99.90;;;;;;5077366;28;20446;-61
2022/10/17 10:17:26;;;;;;;9.50;5.40;;;17.70;99.90;;;;;;5078456;28;21110;-61
2022/10/17 10:19:53;;;;;;;7.60;4.90;;;17.90;99.90;;;;;;5083629;28;20299;-63
2022/10/17 10:22:23;;;;;;;6.50;4.53;;;18.00;99.90;;;;;;5083707;28;20184;-61
2022/10/17 10:25:07;;;;;;;8.17;3.97;;;18.10;99.90;;;;;;5082975;28;20436;-61
2022/10/17 10:27:33;;;;;;;9.00;3.43;;;18.20;99.90;;;;;;5074935;28;20481;-61
2022/10/17 10:29:58;;;;;;;5.33;4.10;;;18.30;99.90;;;;;;5078170;28;20436;-62
2022/10/17 10:32:35;;;;;;;4.13;3.60;;;18.50;99.90;;;;;;5080925;28;20656;-62
2022/10/17 10:35:23;;;;;;;10.70;3.77;;;18.60;99.90;;;;;;5077282;28;20197;-61
2022/10/17 10:37:57;;;;;;;5.03;3.70;;;18.80;99.90;;;;;;5079061;28;20535;-62
2022/10/17 10:40:36;;;;;;;7.30;4.03;;;19.00;99.90;;;;;;5077460;28;20520;-62
2022/10/17 10:43:03;;;;;;;10.23;4.03;;;19.10;99.90;;;;;;5077375;28;20500;-61
2022/10/17 10:45:40;;;;;;;8.10;4.90;;;19.20;99.90;;;;;;5074722;28;21035;-62
2022/10/17 10:48:24;;;;;;;7.20;4.53;;;19.40;99.90;;;;;;5081815;28;20466;-62
2022/10/17 10:50:56;;;;;;;8.87;5.43;;;19.60;99.90;;;;;;5079300;28;20428;-62
2022/10/17 10:53:30;;;;;;;8.63;4.80;;;19.80;99.90;;;;;;5080686;28;20923;-61
2022/10/17 10:56:16;;;;;;;5.93;4.07;;;20.10;99.90;;;;;;5078760;28;20940;-57
2022/10/17 10:58:42;;;;;;;6.50;3.77;;;20.40;99.90;;;;;;5079714;28;20869;-57
2022/10/17 11:01:32;;;;;;;12.40;4.53;;;20.70;98.40;;;;;;5075901;28;20456;-57
2022/10/17 11:04:16;;;;;;;9.60;3.70;;;21.20;94.90;;;;;;5078288;28;20240;-61
2022/10/17 11:06:44;;;;;;;5.97;3.80;;;21.70;85.90;;;;;;5080853;28;20859;-62
2022/10/17 11:09:44;;;;;;;8.40;4.60;;;22.30;82.90;;;;;;5074937;28;20914;-61
2022/10/17 11:12:17;;;;;;;7.00;3.73;;;22.80;74.60;;;;;;5075174;28;20502;-61
2022/10/17 11:14:54;;;;;;;8.93;3.13;;;23.30;70.70;;;;;;5071623;28;21084;-61
2022/10/17 11:17:35;;;;;;;4.20;3.00;;;23.80;69.20;;;;;;5074637;28;20428;-61
2022/10/17 11:20:00;;;;;;;5.73;2.63;;;24.20;64.30;;;;;;5072852;28;20460;-57
2022/10/17 11:22:30;;;;;;;4.67;2.30;;;24.40;59.60;;;;;;5081365;28;20415;-58
2022/10/17 11:25:37;;;;;;;5.20;2.43;;;24.60;56.20;;;;;;5074828;28;20268;-58
2022/10/17 11:28:15;;;;;;;2.90;1.70;;;24.50;52.80;;;;;;5082416;28;20455;-57
2022/10/17 11:31:10;;;;;;;6.33;2.27;;;24.60;52.00;;;;;;5080054;28;20184;-57
2022/10/17 11:34:00;;;;;;;6.80;1.80;;;24.70;50.30;;;;;;5077610;28;20177;-58
2022/10/17 11:36:33;;;;;;;4.47;2.08;;;24.90;50.50;;;;;;5073720;28;20182;-64
2022/10/17 11:39:04;;;;;;;4.03;2.22;;;25.00;49.30;;;;;;5073502;28;20192;-67
2022/10/17 11:41:41;;;;;;;4.75;2.38;;;25.10;49.70;;;;;;5083463;28;20269;-66
2022/10/17 11:44:35;;;;;;;4.07;2.03;;;25.20;49.50;;;;;;5071987;28;20193;-64
2022/10/17 11:47:06;;;;;;;2.83;1.95;;;25.70;49.60;;;;;;5075963;28;20240;-65
2022/10/17 11:49:46;;;;;;;4.43;2.03;;;26.00;49.20;;;;;;5074373;28;20280;-65
2022/10/17 11:52:46;;;;;;;1.67;1.58;;;26.30;47.80;;;;;;5073905;28;20208;-65
2022/10/17 11:55:26;;;;;;;3.58;1.80;;;26.70;48.00;;;;;;5066940;28;20190;-65
2022/10/17 11:58:00;;;;;;;1.90;1.80;;;27.00;46.50;;;;;;5082053;28;20201;-65
2022/10/17 12:00:41;;;;;;;4.38;2.17;;;27.20;46.30;;;;;;5074149;28;20675;-65
2022/10/17 12:03:41;;;;;;;3.03;1.88;;;27.30;45.00;;;;;;5075236;28;20552;-64
2022/10/17 12:06:12;;;;;;;3.80;2.15;;;27.50;44.70;;;;;;5068985;28;20171;-65
2022/10/17 12:08:47;;;;;;;4.43;1.85;;;27.90;44.70;;;;;;5072233;28;20228;-65
2022/10/17 12:11:27;;;;;;;2.38;1.95;;;28.10;43.80;;;;;;5076463;28;20201;-65
2022/10/17 12:13:55;;;;;;;3.28;2.05;;;28.40;43.30;;;;;;5071564;28;20687;-65
2022/10/17 12:16:20;;;;;;;6.80;1.95;;;28.70;42.80;;;;;;5072255;28;20182;-65
2022/10/17 12:18:50;;;;;;;4.00;1.50;;;28.70;42.00;;;;;;5075728;28;20185;-63
2022/10/17 12:21:16;;;;;;;2.35;1.85;;;28.70;42.50;;;;;;5073508;28;20549;-64
2022/10/17 12:23:52;;;;;;;5.13;1.80;;;28.40;42.60;;;;;;5077292;28;20179;-63
2022/10/17 12:26:26;;;;;;;6.32;2.30;;;28.10;43.20;;;;;;5068966;28;20179;-62
2022/10/17 12:28:52;;;;;;;2.55;2.08;;;27.80;43.00;;;;;;5076164;28;20199;-62
2022/10/17 12:31:18;;;;;;;5.13;1.95;;;27.70;44.20;;;;;;5071002;28;20226;-60
2022/10/17 12:33:49;;;;;;;3.85;2.13;;;27.60;45.20;;;;;;5076400;28;20221;-62
2022/10/17 12:36:20;;;;;;;3.17;1.98;;;27.70;45.90;;;;;;5074571;28;20177;-62
2022/10/17 12:39:12;;;;;;;2.33;1.73;;;27.90;46.40;;;;;;5078006;28;20190;-62
2022/10/17 12:41:38;;;;;;;2.65;1.70;;;28.10;45.20;;;;;;5073784;28;20193;-60
2022/10/17 12:44:12;;;;;;;4.03;1.90;;;28.20;45.20;;;;;;5077385;28;20170;-61
2022/10/17 12:46:50;;;;;;;2.15;1.77;;;28.30;44.40;;;;;;5076363;28;20192;-61
2022/10/17 12:49:38;;;;;;;5.78;2.22;;;28.40;44.50;;;;;;5077773;28;20195;-61
2022/10/17 12:52:44;;;;;;;4.32;2.03;;;28.40;44.30;;;;;;5069211;28;20194;-62
2022/10/17 12:55:16;;;;;;;6.82;2.08;;;28.30;43.70;;;;;;5073985;28;20197;-61
2022/10/17 12:57:55;;;;;;;9.45;2.63;;;28.10;44.50;;;;;;5073339;28;20207;-61
2022/10/17 13:00:43;;;;;;;5.07;2.08;;;28.00;44.20;;;;;;5073892;28;20183;-61
2022/10/17 13:03:13;;;;;;;2.45;1.90;;;27.80;44.30;;;;;;5072945;28;20258;-60
2022/10/17 13:05:44;;;;;;;6.40;2.28;;;27.60;44.50;;;;;;5074866;28;20170;-61